Terminal Aerodrome Forecast
Issued by NWS Blacksburg, VA

Current Version | Previous Version | Text Only | Print | Product List | Glossary Off
Versions: 1 2 3 4 5 6 7 8 9 10 11 12 13 14 15 16 17 18 19 20 21 22 23 24 25 26 27 28 29 30 31 32 33 34 35 36

858
FTUS41 KRNK 181430 AAA
TAFBLF
TAF AMD
KBLF 181430Z 1815/1912 25006KT P6SM VCSH BKN025
      TEMPO 1815/1818 4SM SHRA OVC025
     FM181800 27009KT P6SM VCTS BKN035CB
     FM182200 29008KT P6SM SCT070=

USA.gov is the U.S. government's official web portal to all federal, state and local government web resources and services.